createdAt,value
2022-09-29T00:00:21.764Z,0
2022-09-29T00:01:22.419Z,0
2022-09-29T00:02:22.276Z,0
2022-09-29T00:03:22.864Z,0
2022-09-29T00:04:22.070Z,0
2022-09-29T00:05:22.133Z,0
2022-09-29T00:06:22.513Z,0
2022-09-29T00:07:21.976Z,0
2022-09-29T00:08:21.789Z,0
2022-09-29T00:09:22.715Z,0
2022-09-29T00:10:21.997Z,0
2022-09-29T00:11:22.533Z,0
2022-09-29T00:12:22.220Z,0
2022-09-29T00:13:21.977Z,0
2022-09-29T00:14:22.712Z,0
2022-09-29T00:15:22.004Z,0
2022-09-29T00:16:22.407Z,0
2022-09-29T00:17:22.612Z,0
2022-09-29T00:18:24.208Z,0
2022-09-29T00:19:22.072Z,0
2022-09-29T00:20:22.353Z,0
2022-09-29T00:21:22.447Z,0
2022-09-29T00:22:22.371Z,0
2022-09-29T00:23:22.652Z,0
2022-09-29T00:24:22.575Z,0
2022-09-29T00:25:22.170Z,0
2022-09-29T00:26:22.737Z,0
2022-09-29T00:27:22.491Z,0
2022-09-29T00:28:22.513Z,0
2022-09-29T00:29:22.531Z,0
2022-09-29T00:30:22.530Z,0
2022-09-29T00:31:22.465Z,0
2022-09-29T00:32:22.701Z,0
2022-09-29T00:33:22.838Z,0
2022-09-29T00:34:22.600Z,0
2022-09-29T00:35:22.337Z,0
2022-09-29T00:36:22.865Z,0
2022-09-29T00:37:23.065Z,0
2022-09-29T00:38:22.395Z,0
2022-09-29T00:39:22.560Z,0
2022-09-29T00:40:22.915Z,0
2022-09-29T00:41:22.454Z,0
2022-09-29T00:42:22.730Z,0
2022-09-29T00:43:23.001Z,0
2022-09-29T00:44:23.080Z,0
2022-09-29T00:45:22.967Z,0
2022-09-29T00:46:22.703Z,0
2022-09-29T00:47:22.807Z,0
2022-09-29T00:48:22.552Z,0
2022-09-29T00:49:22.851Z,0
2022-09-29T00:50:22.607Z,0
2022-09-29T00:51:22.627Z,0
2022-09-29T00:52:22.819Z,0
2022-09-29T00:53:29.336Z,0
2022-09-29T00:54:23.309Z,0
2022-09-29T00:55:22.971Z,0
2022-09-29T00:56:23.214Z,0
2022-09-29T00:57:22.948Z,0
2022-09-29T00:58:23.256Z,0
2022-09-29T00:59:22.734Z,0
2022-09-29T01:00:23.292Z,0
2022-09-29T01:01:23.331Z,0
2022-09-29T01:02:23.188Z,0
2022-09-29T01:03:23.062Z,0
2022-09-29T01:04:23.519Z,0
2022-09-29T01:05:23.382Z,0
2022-09-29T01:06:23.375Z,0
2022-09-29T01:07:23.108Z,0
2022-09-29T01:08:23.423Z,0
2022-09-29T01:09:23.309Z,0
2022-09-29T01:10:23.195Z,0
2022-09-29T01:11:23.202Z,0
2022-09-29T01:12:22.942Z,0
2022-09-29T01:13:23.236Z,0
2022-09-29T01:14:23.759Z,0
2022-09-29T01:15:23.267Z,0
2022-09-29T01:16:23.113Z,0
2022-09-29T01:17:23.366Z,0
2022-09-29T01:18:22.797Z,0
2022-09-29T01:19:23.593Z,0
2022-09-29T01:20:23.610Z,0
2022-09-29T01:21:23.144Z,0
2022-09-29T01:22:23.402Z,0
2022-09-29T01:23:23.767Z,0
2022-09-29T01:24:23.058Z,0
2022-09-29T01:25:23.514Z,0
2022-09-29T01:26:23.212Z,0
2022-09-29T01:27:23.556Z,0
2022-09-29T01:28:23.736Z,0
2022-09-29T01:29:23.250Z,0
2022-09-29T01:30:23.806Z,0
2022-09-29T01:31:23.877Z,0
2022-09-29T01:32:23.292Z,0
2022-09-29T01:33:23.548Z,0
2022-09-29T01:34:23.806Z,0
2022-09-29T01:35:23.598Z,0
2022-09-29T01:36:23.609Z,0
2022-09-29T01:37:23.660Z,0
2022-09-29T01:38:23.901Z,0
2022-09-29T01:39:23.303Z,0
2022-09-29T01:40:23.861Z,0
2022-09-29T01:41:23.783Z,0
2022-09-29T01:42:23.703Z,0
2022-09-29T01:43:23.473Z,0
2022-09-29T01:44:23.964Z,0
2022-09-29T01:45:23.702Z,0
2022-09-29T01:46:24.091Z,0
2022-09-29T01:47:23.540Z,0
2022-09-29T01:48:24.067Z,0
2022-09-29T01:49:23.581Z,0
2022-09-29T01:50:23.858Z,0
2022-09-29T01:51:24.209Z,0
2022-09-29T01:52:23.613Z,0
2022-09-29T01:53:23.931Z,0
2022-09-29T01:54:23.908Z,0
2022-09-29T01:55:24.202Z,0
2022-09-29T01:56:23.984Z,0
2022-09-29T01:57:24.287Z,0
2022-09-29T01:58:23.727Z,0
2022-09-29T01:59:24.239Z,0
2022-09-29T02:00:24.007Z,0
2022-09-29T02:01:24.554Z,0
2022-09-29T02:02:24.634Z,0
2022-09-29T02:03:24.314Z,0
2022-09-29T02:04:24.285Z,0
2022-09-29T02:05:24.090Z,0
2022-09-29T02:06:24.381Z,0
2022-09-29T02:07:24.141Z,0
2022-09-29T02:08:24.147Z,0
2022-09-29T02:09:24.445Z,0
2022-09-29T02:10:24.179Z,0
2022-09-29T02:11:24.195Z,0
2022-09-29T02:12:24.470Z,0
2022-09-29T02:13:24.305Z,0
2022-09-29T02:14:24.046Z,0
2022-09-29T02:15:24.261Z,0
2022-09-29T02:16:24.894Z,0
2022-09-29T02:17:24.361Z,0
2022-09-29T02:18:24.328Z,0
2022-09-29T02:19:23.830Z,0
2022-09-29T02:20:24.084Z,0
2022-09-29T02:21:23.833Z,0
2022-09-29T02:22:23.854Z,0
2022-09-29T02:23:23.867Z,0
2022-09-29T02:24:24.486Z,0
2022-09-29T02:25:24.463Z,0
2022-09-29T02:26:24.453Z,0
2022-09-29T02:27:24.440Z,0
2022-09-29T02:28:23.968Z,0
2022-09-29T02:29:24.608Z,0
2022-09-29T02:30:24.577Z,0
2022-09-29T02:31:24.515Z,0
2022-09-29T02:32:24.034Z,0
2022-09-29T02:33:24.548Z,0
2022-09-29T02:34:24.871Z,0
2022-09-29T02:35:24.330Z,0
2022-09-29T02:36:24.391Z,0
2022-09-29T02:37:24.869Z,0
2022-09-29T02:38:24.430Z,0
2022-09-29T02:39:24.650Z,0
2022-09-29T02:40:24.876Z,0
2022-09-29T02:41:24.965Z,0
2022-09-29T02:42:24.698Z,0
2022-09-29T02:43:24.985Z,0
2022-09-29T02:44:24.871Z,0
2022-09-29T02:45:25.232Z,0
2022-09-29T02:46:24.514Z,0
2022-09-29T02:47:24.529Z,0
2022-09-29T02:48:24.029Z,0
2022-09-29T02:49:25.155Z,0
2022-09-29T02:50:24.458Z,0
2022-09-29T02:51:24.871Z,0
2022-09-29T02:52:24.863Z,0
2022-09-29T02:53:24.874Z,0
2022-09-29T02:54:25.531Z,0
2022-09-29T02:55:24.919Z,0
2022-09-29T02:56:24.925Z,0
2022-09-29T02:57:24.965Z,0
2022-09-29T02:58:25.227Z,0
2022-09-29T02:59:25.242Z,0
2022-09-29T03:00:24.977Z,0
2022-09-29T03:01:25.757Z,0
2022-09-29T03:02:24.759Z,0
2022-09-29T03:03:24.839Z,0
2022-09-29T03:04:24.915Z,0
2022-09-29T03:05:24.819Z,0
2022-09-29T03:06:25.367Z,0
2022-09-29T03:07:25.109Z,0
2022-09-29T03:08:24.870Z,0
2022-09-29T03:09:25.146Z,0
2022-09-29T03:10:30.144Z,0
2022-09-29T03:11:25.180Z,0
2022-09-29T03:12:24.969Z,0
2022-09-29T03:13:25.230Z,0
2022-09-29T03:14:25.713Z,0
2022-09-29T03:15:25.255Z,0
2022-09-29T03:16:25.986Z,0
2022-09-29T03:17:25.646Z,0
2022-09-29T03:18:25.297Z,0
2022-09-29T03:19:25.050Z,0
2022-09-29T03:20:25.060Z,0
2022-09-29T03:21:25.605Z,0
2022-09-29T03:22:25.377Z,0
2022-09-29T03:23:25.112Z,0
2022-09-29T03:24:25.737Z,0
2022-09-29T03:25:24.897Z,0
2022-09-29T03:26:25.434Z,0
2022-09-29T03:27:24.926Z,0
2022-09-29T03:28:25.203Z,0
2022-09-29T03:29:25.877Z,0
2022-09-29T03:30:25.746Z,0
2022-09-29T03:31:26.049Z,0
2022-09-29T03:32:25.259Z,0
2022-09-29T03:33:25.615Z,0
2022-09-29T03:34:25.815Z,0
2022-09-29T03:35:25.592Z,0
2022-09-29T03:36:25.445Z,0
2022-09-29T03:37:25.357Z,0
2022-09-29T03:38:25.635Z,0
2022-09-29T03:39:25.794Z,0
2022-09-29T03:40:25.998Z,0
2022-09-29T03:41:25.408Z,0
2022-09-29T03:42:25.166Z,0
2022-09-29T03:43:25.719Z,0
2022-09-29T03:44:25.457Z,0
2022-09-29T03:45:25.913Z,0
2022-09-29T03:46:25.485Z,0
2022-09-29T03:47:25.510Z,0
2022-09-29T03:48:30.303Z,0
2022-09-29T03:49:25.592Z,0
2022-09-29T03:50:25.944Z,0
2022-09-29T03:51:25.585Z,0
2022-09-29T03:52:25.847Z,0
2022-09-29T03:53:25.606Z,0
2022-09-29T03:54:25.402Z,0
2022-09-29T03:55:25.902Z,0
2022-09-29T03:56:25.914Z,0
2022-09-29T03:57:26.178Z,0
2022-09-29T03:58:25.697Z,0
2022-09-29T03:59:25.678Z,0
2022-09-29T04:00:25.466Z,0
2022-09-29T04:01:26.596Z,0
2022-09-29T04:02:26.349Z,0
2022-09-29T04:03:26.032Z,0
2022-09-29T04:04:26.381Z,0
2022-09-29T04:05:26.073Z,0
2022-09-29T04:06:26.062Z,0
2022-09-29T04:07:26.342Z,0
2022-09-29T04:08:26.385Z,0
2022-09-29T04:09:26.623Z,0
2022-09-29T04:10:26.151Z,0
2022-09-29T04:11:26.148Z,0
2022-09-29T04:12:26.427Z,0
2022-09-29T04:13:29.909Z,0
2022-09-29T04:14:25.953Z,0
2022-09-29T04:15:26.229Z,0
2022-09-29T04:16:26.414Z,0
2022-09-29T04:17:26.020Z,0
2022-09-29T04:18:26.263Z,0
2022-09-29T04:19:26.778Z,0
2022-09-29T04:20:26.652Z,0
2022-09-29T04:21:26.059Z,0
2022-09-29T04:22:26.120Z,0
2022-09-29T04:23:26.354Z,0
2022-09-29T04:24:25.872Z,0
2022-09-29T04:25:26.127Z,0
2022-09-29T04:26:26.421Z,0
2022-09-29T04:27:26.684Z,0
2022-09-29T04:28:25.917Z,0
2022-09-29T04:29:26.673Z,0
2022-09-29T04:30:26.456Z,0
2022-09-29T04:31:26.778Z,0
2022-09-29T04:32:26.505Z,0
2022-09-29T04:33:26.529Z,0
2022-09-29T04:34:28.323Z,0
2022-09-29T04:35:25.774Z,0
2022-09-29T04:36:27.003Z,0
2022-09-29T04:37:26.580Z,0
2022-09-29T04:38:26.329Z,0
2022-09-29T04:39:26.529Z,0
2022-09-29T04:40:26.523Z,0
2022-09-29T04:41:26.670Z,0
2022-09-29T04:42:26.940Z,0
2022-09-29T04:43:26.673Z,0
2022-09-29T04:44:26.697Z,0
2022-09-29T04:45:26.991Z,0
2022-09-29T04:46:27.036Z,0
2022-09-29T04:47:27.001Z,0
2022-09-29T04:48:26.751Z,0
2022-09-29T04:49:26.980Z,0
2022-09-29T04:50:27.186Z,0
2022-09-29T04:51:26.542Z,0
2022-09-29T04:52:27.267Z,0
2022-09-29T04:53:26.830Z,0
2022-09-29T04:54:26.850Z,0
2022-09-29T04:55:26.619Z,0
2022-09-29T04:56:26.634Z,0
2022-09-29T04:57:27.159Z,0
2022-09-29T04:58:26.693Z,0
2022-09-29T04:59:27.085Z,0
2022-09-29T05:00:27.209Z,0
2022-09-29T05:01:27.426Z,0
2022-09-29T05:02:27.382Z,0
2022-09-29T05:03:26.748Z,0
2022-09-29T05:04:27.015Z,0
2022-09-29T05:05:26.804Z,0
2022-09-29T05:06:27.041Z,0
2022-09-29T05:07:26.844Z,0
2022-09-29T05:08:27.406Z,0
2022-09-29T05:09:37.330Z,0
2022-09-29T05:10:26.604Z,0
2022-09-29T05:11:26.866Z,0
2022-09-29T05:12:26.879Z,0
2022-09-29T05:13:27.420Z,0
2022-09-29T05:14:27.202Z,0
2022-09-29T05:15:33.142Z,0
2022-09-29T05:16:27.570Z,0
2022-09-29T05:17:27.558Z,0
2022-09-29T05:18:27.484Z,0
2022-09-29T05:19:27.331Z,0
2022-09-29T05:20:32.408Z,0
2022-09-29T05:21:42.330Z,0
2022-09-29T05:22:27.145Z,0
2022-09-29T05:23:27.312Z,0
2022-09-29T05:24:27.165Z,0
2022-09-29T05:25:27.111Z,0
2022-09-29T05:26:27.386Z,0
2022-09-29T05:27:27.319Z,0
2022-09-29T05:28:27.650Z,0
2022-09-29T05:29:27.157Z,0
2022-09-29T05:30:27.724Z,0
2022-09-29T05:31:28.341Z,0
2022-09-29T05:32:27.475Z,0
2022-09-29T05:33:27.255Z,0
2022-09-29T05:34:27.000Z,0
2022-09-29T05:35:27.777Z,0
2022-09-29T05:36:27.275Z,0
2022-09-29T05:37:27.649Z,0
2022-09-29T05:38:27.316Z,5
2022-09-29T05:39:27.959Z,5
2022-09-29T05:40:28.382Z,5
2022-09-29T05:41:27.618Z,5
2022-09-29T05:42:27.640Z,5
2022-09-29T05:43:27.903Z,5
2022-09-29T05:44:27.410Z,5
2022-09-29T05:45:27.979Z,5
2022-09-29T05:46:27.882Z,5
2022-09-29T05:47:27.730Z,5
2022-09-29T05:48:27.753Z,5
2022-09-29T05:49:27.593Z,5
2022-09-29T05:50:28.063Z,5
2022-09-29T05:51:32.426Z,5
2022-09-29T05:52:27.802Z,5
2022-09-29T05:53:28.090Z,5
2022-09-29T05:54:27.604Z,5
2022-09-29T05:55:27.585Z,5
2022-09-29T05:56:27.948Z,5
2022-09-29T05:57:28.137Z,5
2022-09-29T05:58:27.891Z,5
2022-09-29T05:59:28.140Z,5
2022-09-29T06:00:27.720Z,10
2022-09-29T06:01:28.492Z,10
2022-09-29T06:02:28.307Z,10
2022-09-29T06:03:28.355Z,10
2022-09-29T06:04:28.000Z,10
2022-09-29T06:05:28.009Z,10
2022-09-29T06:06:27.777Z,10
2022-09-29T06:07:27.787Z,10
2022-09-29T06:08:28.054Z,10
2022-09-29T06:09:28.355Z,10
2022-09-29T06:10:28.161Z,10
2022-09-29T06:11:27.852Z,10
2022-09-29T06:12:31.204Z,10
2022-09-29T06:13:28.142Z,10
2022-09-29T06:14:28.203Z,10
2022-09-29T06:15:28.174Z,15
2022-09-29T06:16:28.281Z,15
2022-09-29T06:17:28.213Z,15
2022-09-29T06:18:28.245Z,15
2022-09-29T06:19:28.503Z,15
2022-09-29T06:20:28.502Z,20
2022-09-29T06:21:28.273Z,20
2022-09-29T06:22:28.286Z,20
2022-09-29T06:23:28.568Z,20
2022-09-29T06:24:28.057Z,20
2022-09-29T06:25:28.366Z,20
2022-09-29T06:26:32.837Z,20
2022-09-29T06:27:28.374Z,20
2022-09-29T06:28:28.737Z,20
2022-09-29T06:29:28.869Z,20
2022-09-29T06:30:29.474Z,20
2022-09-29T06:31:29.114Z,25
2022-09-29T06:32:28.473Z,25
2022-09-29T06:33:28.095Z,25
2022-09-29T06:34:28.521Z,25
2022-09-29T06:35:28.739Z,25
2022-09-29T06:36:28.535Z,25
2022-09-29T06:37:28.797Z,25
2022-09-29T06:38:28.560Z,25
2022-09-29T06:39:28.618Z,25
2022-09-29T06:40:29.069Z,25
2022-09-29T06:41:28.627Z,25
2022-09-29T06:42:28.623Z,30
2022-09-29T06:43:28.626Z,30
2022-09-29T06:44:29.005Z,30
2022-09-29T06:45:31.775Z,30
2022-09-29T06:46:29.025Z,30
2022-09-29T06:47:28.972Z,30
2022-09-29T06:48:28.462Z,35
2022-09-29T06:49:28.995Z,30
2022-09-29T06:50:31.406Z,35
2022-09-29T06:51:46.838Z,35
2022-09-29T06:52:36.681Z,35
2022-09-29T06:53:45.251Z,35
2022-09-29T06:54:28.827Z,35
2022-09-29T06:55:28.865Z,35
2022-09-29T06:56:28.863Z,35
2022-09-29T06:57:29.162Z,35
2022-09-29T06:58:28.882Z,35
2022-09-29T06:59:29.578Z,40
2022-09-29T07:00:29.280Z,40
2022-09-29T07:01:29.437Z,40
2022-09-29T07:02:29.052Z,40
2022-09-29T07:03:28.969Z,40
2022-09-29T07:04:30.183Z,40
2022-09-29T07:05:28.751Z,35
2022-09-29T07:06:29.852Z,35
2022-09-29T07:07:28.814Z,35
2022-09-29T07:08:28.787Z,35
2022-09-29T07:09:29.152Z,35
2022-09-29T07:10:29.124Z,35
2022-09-29T07:11:29.097Z,35
2022-09-29T07:12:29.114Z,35
2022-09-29T07:13:28.922Z,35
2022-09-29T07:14:29.591Z,40
2022-09-29T07:15:28.979Z,45
2022-09-29T07:16:29.845Z,40
2022-09-29T07:17:29.482Z,35
2022-09-29T07:18:29.229Z,45
2022-09-29T07:19:29.883Z,40
2022-09-29T07:20:29.034Z,35
2022-09-29T07:21:29.178Z,35
2022-09-29T07:22:32.252Z,35
2022-09-29T07:23:29.065Z,35
2022-09-29T07:24:29.568Z,35
2022-09-29T07:25:59.784Z,40
2022-09-29T07:26:29.752Z,50
2022-09-29T07:27:28.860Z,45
2022-09-29T07:28:29.423Z,55
2022-09-29T07:29:30.044Z,55
2022-09-29T07:30:45.905Z,45
2022-09-29T07:31:31.735Z,45
2022-09-29T07:32:37.855Z,45
2022-09-29T07:33:46.605Z,60
2022-09-29T07:34:29.250Z,60
2022-09-29T07:35:29.519Z,60
2022-09-29T07:36:29.026Z,55
2022-09-29T07:37:29.540Z,55
2022-09-29T07:38:29.573Z,60
2022-09-29T07:39:29.795Z,60
2022-09-29T07:40:30.255Z,60
2022-09-29T07:41:29.618Z,60
2022-09-29T07:42:29.111Z,60
2022-09-29T07:43:29.636Z,60
2022-09-29T07:44:29.470Z,60
2022-09-29T07:45:29.908Z,60
2022-09-29T07:46:30.136Z,60
2022-09-29T07:47:30.030Z,60
2022-09-29T07:48:35.999Z,60
2022-09-29T07:49:30.269Z,60
2022-09-29T07:50:29.756Z,60
2022-09-29T07:51:29.518Z,60
2022-09-29T07:52:29.806Z,60
2022-09-29T07:53:29.541Z,60
2022-09-29T07:54:36.270Z,60
2022-09-29T07:55:29.568Z,60
2022-09-29T07:56:29.358Z,60
2022-09-29T07:57:30.272Z,60
2022-09-29T07:58:29.631Z,60
2022-09-29T07:59:29.386Z,60
2022-09-29T08:00:29.678Z,60
2022-09-29T08:01:30.433Z,60
2022-09-29T08:02:29.846Z,60
2022-09-29T08:03:30.347Z,60
2022-09-29T08:04:30.298Z,60
2022-09-29T08:05:30.269Z,60
2022-09-29T08:06:30.037Z,60
2022-09-29T08:07:30.312Z,60
2022-09-29T08:08:30.326Z,60
2022-09-29T08:09:46.322Z,60
2022-09-29T08:10:30.052Z,60
2022-09-29T08:11:40.484Z,60
2022-09-29T08:12:46.682Z,60
2022-09-29T08:13:30.292Z,60
2022-09-29T08:14:29.937Z,60
2022-09-29T08:15:30.263Z,60
2022-09-29T08:16:30.943Z,60
2022-09-29T08:17:30.297Z,60
2022-09-29T08:18:30.480Z,60
2022-09-29T08:19:30.292Z,60
2022-09-29T08:20:30.330Z,60
2022-09-29T08:21:30.524Z,60
2022-09-29T08:22:30.329Z,60
2022-09-29T08:23:30.354Z,65
2022-09-29T08:24:30.748Z,65
2022-09-29T08:25:30.346Z,65
2022-09-29T08:26:50.139Z,65
2022-09-29T08:27:30.520Z,65
2022-09-29T08:28:39.742Z,60
2022-09-29T08:29:46.076Z,65
2022-09-29T08:30:30.158Z,65
2022-09-29T08:31:30.400Z,65
2022-09-29T08:32:30.454Z,60
2022-09-29T08:33:30.500Z,60
2022-09-29T08:34:30.482Z,60
2022-09-29T08:35:29.754Z,60
2022-09-29T08:36:30.632Z,60
2022-09-29T08:37:35.347Z,60
2022-09-29T08:38:29.796Z,60
2022-09-29T08:39:30.070Z,60
2022-09-29T08:40:30.467Z,60
2022-09-29T08:41:30.634Z,60
2022-09-29T08:42:44.221Z,60
2022-09-29T08:43:42.333Z,60
2022-09-29T08:44:50.358Z,60
2022-09-29T08:45:31.098Z,60
2022-09-29T08:46:44.115Z,60
2022-09-29T08:47:50.227Z,60
2022-09-29T08:48:33.434Z,60
2022-09-29T08:49:41.655Z,60
2022-09-29T08:50:31.231Z,60
2022-09-29T08:51:47.602Z,60
2022-09-29T08:52:37.279Z,60
2022-09-29T08:53:37.523Z,60
2022-09-29T08:54:53.531Z,60
2022-09-29T08:55:31.228Z,60
2022-09-29T08:56:30.860Z,60
2022-09-29T08:57:30.637Z,60
2022-09-29T08:58:31.249Z,60
2022-09-29T08:59:30.904Z,60
2022-09-29T09:00:30.986Z,60
2022-09-29T09:01:31.621Z,60
2022-09-29T09:02:31.205Z,60
2022-09-29T09:03:30.732Z,60
2022-09-29T09:04:30.994Z,60
2022-09-29T09:05:30.804Z,60
2022-09-29T09:06:31.677Z,55
2022-09-29T09:07:31.218Z,45
2022-09-29T09:08:31.351Z,45
2022-09-29T09:09:31.019Z,40
2022-09-29T09:10:31.123Z,60
2022-09-29T09:11:31.384Z,60
2022-09-29T09:12:31.131Z,60
2022-09-29T09:13:31.427Z,60
2022-09-29T09:14:30.956Z,60
2022-09-29T09:15:31.463Z,55
2022-09-29T09:16:31.360Z,60
2022-09-29T09:17:31.228Z,60
2022-09-29T09:18:31.265Z,60
2022-09-29T09:19:31.527Z,60
2022-09-29T09:20:31.359Z,60
2022-09-29T09:21:31.245Z,65
2022-09-29T09:22:31.702Z,65
2022-09-29T09:23:31.669Z,60
2022-09-29T09:24:34.629Z,60
2022-09-29T09:25:31.383Z,60
2022-09-29T09:26:31.146Z,60
2022-09-29T09:27:31.165Z,60
2022-09-29T09:28:31.553Z,60
2022-09-29T09:29:37.561Z,55
2022-09-29T09:30:32.235Z,50
2022-09-29T09:31:31.338Z,60
2022-09-29T09:32:31.304Z,45
2022-09-29T09:33:40.185Z,45
2022-09-29T09:34:51.270Z,45
2022-09-29T09:35:33.834Z,45
2022-09-29T09:36:42.022Z,45
2022-09-29T09:37:31.343Z,50
2022-09-29T09:38:31.854Z,50
2022-09-29T09:39:31.962Z,45
2022-09-29T09:40:31.365Z,45
2022-09-29T09:41:37.297Z,55
2022-09-29T09:42:31.926Z,60
2022-09-29T09:43:31.683Z,40
2022-09-29T09:44:31.685Z,40
2022-09-29T09:45:31.757Z,40
2022-09-29T09:46:38.167Z,55
2022-09-29T09:47:31.481Z,45
2022-09-29T09:48:38.631Z,45
2022-09-29T09:49:31.281Z,60
2022-09-29T09:50:31.761Z,60
2022-09-29T09:51:31.373Z,65
2022-09-29T09:52:31.645Z,70
2022-09-29T09:53:31.883Z,85
2022-09-29T09:54:32.122Z,95
2022-09-29T09:55:31.975Z,100
2022-09-29T09:56:31.383Z,100
2022-09-29T09:57:31.919Z,100
2022-09-29T09:58:31.673Z,95
2022-09-29T09:59:31.785Z,95
2022-09-29T10:00:32.234Z,95
2022-09-29T10:01:32.150Z,100
2022-09-29T10:02:32.374Z,100
2022-09-29T10:03:31.783Z,100
2022-09-29T10:04:32.025Z,95
2022-09-29T10:05:32.059Z,95
2022-09-29T10:06:31.818Z,90
2022-09-29T10:07:32.137Z,70
2022-09-29T10:08:32.111Z,65
2022-09-29T10:09:32.792Z,60
2022-09-29T10:10:31.888Z,65
2022-09-29T10:11:32.238Z,70
2022-09-29T10:12:31.932Z,75
2022-09-29T10:13:31.952Z,70
2022-09-29T10:14:32.477Z,65
2022-09-29T10:15:32.493Z,65
2022-09-29T10:16:32.834Z,65
2022-09-29T10:17:32.517Z,60
2022-09-29T10:18:32.307Z,60
2022-09-29T10:19:32.047Z,60
2022-09-29T10:20:32.064Z,60
2022-09-29T10:21:32.097Z,50
2022-09-29T10:22:32.111Z,45
2022-09-29T10:23:32.366Z,45
2022-09-29T10:24:32.417Z,45
2022-09-29T10:25:32.457Z,45
2022-09-29T10:26:31.903Z,45
2022-09-29T10:27:32.806Z,45
2022-09-29T10:28:32.736Z,45
2022-09-29T10:29:32.743Z,45
2022-09-29T10:30:32.953Z,45
2022-09-29T10:31:32.254Z,45
2022-09-29T10:32:32.793Z,45
2022-09-29T10:33:32.288Z,45
2022-09-29T10:34:32.864Z,45
2022-09-29T10:35:32.071Z,45
2022-09-29T10:36:32.614Z,50
2022-09-29T10:37:32.627Z,55
2022-09-29T10:38:32.665Z,55
2022-09-29T10:39:32.697Z,65
2022-09-29T10:40:32.430Z,65
2022-09-29T10:41:32.713Z,65
2022-09-29T10:42:32.453Z,70
2022-09-29T10:43:32.828Z,70
2022-09-29T10:44:32.764Z,75
2022-09-29T10:45:32.505Z,85
2022-09-29T10:46:33.099Z,95
2022-09-29T10:47:32.818Z,95
2022-09-29T10:48:33.087Z,90
2022-09-29T10:49:32.828Z,80
2022-09-29T10:50:39.962Z,70
2022-09-29T10:51:33.114Z,65
2022-09-29T10:52:32.901Z,65
2022-09-29T10:53:32.903Z,65
2022-09-29T10:54:33.175Z,65
2022-09-29T10:55:32.938Z,60
2022-09-29T10:56:32.962Z,55
2022-09-29T10:57:32.994Z,50
2022-09-29T10:59:10.910Z,45
2022-09-29T10:59:32.618Z,45
2022-09-29T11:00:32.780Z,45
2022-09-29T11:01:32.853Z,50
2022-09-29T11:02:32.885Z,50
2022-09-29T11:03:33.425Z,50
2022-09-29T11:04:33.111Z,50
2022-09-29T11:05:33.146Z,50
2022-09-29T11:06:32.644Z,50
2022-09-29T11:07:33.196Z,50
2022-09-29T11:08:32.906Z,50
2022-09-29T11:09:33.776Z,50
2022-09-29T11:10:32.986Z,50
2022-09-29T11:11:33.208Z,50
2022-09-29T11:12:32.986Z,50
2022-09-29T11:13:33.086Z,50
2022-09-29T11:14:33.605Z,50
2022-09-29T11:15:33.191Z,50
2022-09-29T11:16:33.672Z,50
2022-09-29T11:17:33.063Z,50
2022-09-29T11:18:33.443Z,55
2022-09-29T11:19:33.460Z,55
2022-09-29T11:20:33.650Z,55
2022-09-29T11:21:33.482Z,55
2022-09-29T11:22:33.545Z,55
2022-09-29T11:23:33.189Z,55
2022-09-29T11:24:33.197Z,55
2022-09-29T11:25:33.475Z,55
2022-09-29T11:26:33.484Z,55
2022-09-29T11:27:33.254Z,55
2022-09-29T11:28:33.773Z,60
2022-09-29T11:29:33.631Z,65
2022-09-29T11:30:34.124Z,70
2022-09-29T11:31:32.810Z,70
2022-09-29T11:32:33.491Z,65
2022-09-29T11:33:33.623Z,65
2022-09-29T11:34:33.479Z,55
2022-09-29T11:35:33.682Z,60
2022-09-29T11:36:33.421Z,60
2022-09-29T11:37:34.945Z,60
2022-09-29T11:38:33.718Z,60
2022-09-29T11:39:33.469Z,60
2022-09-29T11:40:34.010Z,65
2022-09-29T11:41:33.751Z,70
2022-09-29T11:42:33.766Z,75
2022-09-29T11:43:34.050Z,85
2022-09-29T11:44:33.815Z,90
2022-09-29T11:45:33.645Z,95
2022-09-29T11:46:34.025Z,95
2022-09-29T11:47:33.863Z,95
2022-09-29T11:48:37.839Z,100
2022-09-29T11:49:33.386Z,100
2022-09-29T11:50:33.855Z,100
2022-09-29T11:51:34.190Z,105
2022-09-29T11:52:33.947Z,110
2022-09-29T11:53:34.317Z,110
2022-09-29T11:54:34.286Z,95
2022-09-29T11:55:34.048Z,80
2022-09-29T11:56:34.061Z,75
2022-09-29T11:57:33.780Z,75
2022-09-29T11:58:33.809Z,75
2022-09-29T11:59:33.812Z,80
2022-09-29T12:00:34.086Z,75
2022-09-29T12:01:34.006Z,65
2022-09-29T12:02:35.204Z,70
2022-09-29T12:03:34.370Z,60
2022-09-29T12:04:34.156Z,60
2022-09-29T12:05:33.957Z,60
2022-09-29T12:06:34.443Z,60
2022-09-29T12:07:34.478Z,60
2022-09-29T12:08:34.249Z,60
2022-09-29T12:09:34.262Z,60
2022-09-29T12:10:35.641Z,65
2022-09-29T12:12:29.094Z,65
2022-09-29T12:13:39.192Z,70
2022-09-29T12:14:43.924Z,70
2022-09-29T12:15:45.723Z,70
2022-09-29T12:16:39.615Z,70
2022-09-29T12:17:39.102Z,75
2022-09-29T12:18:39.005Z,75
2022-09-29T12:19:39.307Z,75
2022-09-29T12:20:39.373Z,75
2022-09-29T12:21:39.127Z,70
2022-09-29T12:22:48.840Z,70
2022-09-29T12:23:38.333Z,75
2022-09-29T12:24:38.872Z,70
2022-09-29T12:25:38.660Z,75
2022-09-29T12:26:38.389Z,70
2022-09-29T12:27:39.442Z,70
2022-09-29T12:28:38.427Z,60
2022-09-29T12:29:39.251Z,65
2022-09-29T12:30:39.971Z,70
2022-09-29T12:31:39.391Z,70
2022-09-29T12:32:39.554Z,70
2022-09-29T12:33:39.367Z,60
2022-09-29T12:34:39.300Z,60
2022-09-29T12:35:39.068Z,60
2022-09-29T12:36:39.365Z,70
2022-09-29T12:37:39.665Z,70
2022-09-29T12:38:39.142Z,70
2022-09-29T12:39:39.387Z,70
2022-09-29T12:40:39.422Z,70
2022-09-29T12:41:39.535Z,70
2022-09-29T12:42:39.475Z,70
2022-09-29T12:43:39.489Z,70
2022-09-29T12:44:39.248Z,70
2022-09-29T12:45:44.175Z,70
2022-09-29T12:46:39.697Z,70
2022-09-29T12:47:39.575Z,70
2022-09-29T12:48:39.611Z,70
2022-09-29T12:49:39.679Z,70
2022-09-29T12:50:39.833Z,65
2022-09-29T12:51:39.626Z,65
2022-09-29T12:52:39.403Z,65
2022-09-29T12:53:39.515Z,55
2022-09-29T12:54:39.925Z,70
2022-09-29T12:55:39.703Z,70
2022-09-29T12:56:39.721Z,70
2022-09-29T12:57:39.773Z,70
2022-09-29T12:58:39.511Z,70
2022-09-29T12:59:39.520Z,70
2022-09-29T13:00:40.053Z,65
2022-09-29T13:01:40.565Z,70
2022-09-29T13:02:40.197Z,60
2022-09-29T13:03:39.847Z,60
2022-09-29T13:04:39.745Z,60
2022-09-29T13:05:40.020Z,70
2022-09-29T13:06:39.644Z,70
2022-09-29T13:07:39.916Z,75
2022-09-29T13:08:40.217Z,75
2022-09-29T13:09:39.820Z,75
2022-09-29T13:10:40.241Z,75
2022-09-29T13:11:39.745Z,75
2022-09-29T13:12:39.756Z,75
2022-09-29T13:13:40.310Z,75
2022-09-29T13:14:40.055Z,70
2022-09-29T13:15:46.110Z,70
2022-09-29T13:16:40.444Z,70
2022-09-29T13:17:40.431Z,70
2022-09-29T13:18:48.953Z,70
2022-09-29T13:20:07.940Z,70
2022-09-29T13:20:39.949Z,70
2022-09-29T13:21:40.284Z,70
2022-09-29T13:22:40.206Z,75
2022-09-29T13:23:40.224Z,75
2022-09-29T13:24:48.875Z,75
2022-09-29T13:25:40.266Z,75
2022-09-29T13:26:40.286Z,70
2022-09-29T13:27:40.307Z,70
2022-09-29T13:28:40.568Z,70
2022-09-29T13:29:40.371Z,70
2022-09-29T13:30:40.246Z,70
2022-09-29T13:32:40.415Z,75
2022-09-29T13:33:40.420Z,75
2022-09-29T13:34:40.177Z,75
2022-09-29T13:35:40.188Z,75
2022-09-29T13:36:40.779Z,75
2022-09-29T13:37:40.561Z,75
2022-09-29T13:38:40.758Z,75
2022-09-29T13:39:40.276Z,75
2022-09-29T13:40:40.813Z,75
2022-09-29T13:41:40.556Z,75
2022-09-29T13:42:40.083Z,75
2022-09-29T13:43:40.762Z,75
2022-09-29T13:44:41.023Z,75
2022-09-29T13:45:40.825Z,75
2022-09-29T13:46:40.751Z,70
2022-09-29T13:47:40.986Z,70
2022-09-29T13:48:40.477Z,70
2022-09-29T13:49:40.764Z,70
2022-09-29T13:50:41.035Z,70
2022-09-29T13:51:40.544Z,70
2022-09-29T13:52:40.535Z,65
2022-09-29T13:53:41.142Z,65
2022-09-29T13:54:40.822Z,65
2022-09-29T13:55:40.826Z,65
2022-09-29T13:56:40.987Z,65
2022-09-29T13:57:40.885Z,65
2022-09-29T13:58:41.145Z,65
2022-09-29T13:59:40.903Z,65
2022-09-29T14:00:41.175Z,65
2022-09-29T14:01:40.741Z,65
2022-09-29T14:02:41.150Z,65
2022-09-29T14:03:40.991Z,60
2022-09-29T14:04:46.342Z,60
2022-09-29T14:05:41.030Z,60
2022-09-29T14:06:56.423Z,60
2022-09-29T14:07:41.055Z,60
2022-09-29T14:08:41.399Z,65
2022-09-29T14:09:42.330Z,65
2022-09-29T14:10:41.116Z,65
2022-09-29T14:11:41.143Z,65
2022-09-29T14:12:41.140Z,65
2022-09-29T14:13:40.916Z,65
2022-09-29T14:14:41.259Z,65
2022-09-29T14:15:41.228Z,65
2022-09-29T14:16:41.540Z,65
2022-09-29T14:17:41.525Z,65
2022-09-29T14:18:41.510Z,60
2022-09-29T14:19:41.634Z,65
2022-09-29T14:20:41.048Z,65
2022-09-29T14:21:41.063Z,65
2022-09-29T14:22:41.635Z,65
2022-09-29T14:23:41.632Z,65
2022-09-29T14:24:42.083Z,65
2022-09-29T14:25:41.743Z,60
2022-09-29T14:26:41.176Z,55
2022-09-29T14:27:41.436Z,55
2022-09-29T14:28:41.724Z,55
2022-09-29T14:29:41.472Z,55
2022-09-29T14:30:41.907Z,55